Time;durP1;ratioP1;P1;durP2;ratioP2;P2;SDS_P1;SDS_P2;PMS_P1;PMS_P2;Temp;Humidity;BMP_temperature;BMP_pressure;BME280_temperature;BME280_humidity;BME280_pressure;Samples;Min_cycle;Max_cycle;Signal;HPM_P1;HPM_P2
2022/01/06 00:01:06;;;;;;;8.07;4.10;;;;;;;4.80;84.78;100331.53;10452016;28;20409;-75
2022/01/06 00:06:09;;;;;;;9.57;4.65;;;;;;;4.77;85.22;100321.28;10419650;28;20131;-75
2022/01/06 00:11:11;;;;;;;9.45;4.50;;;;;;;4.86;85.03;100336.28;10439552;28;20049;-75
2022/01/06 00:27:00;;;;;;;8.57;5.37;;;;;;;4.63;85.15;100313.72;10458843;28;20037;-75
2022/01/06 00:32:01;;;;;;;9.25;5.47;;;;;;;3.77;86.01;100179.81;10453833;28;20052;-75
2022/01/06 00:37:02;;;;;;;9.48;5.65;;;;;;;4.36;85.44;100280.88;10433381;28;20128;-74
2022/01/06 00:42:03;;;;;;;9.38;5.68;;;;;;;3.63;86.05;100174.88;10458030;28;20044;-75
2022/01/06 00:47:04;;;;;;;13.63;5.55;;;;;;;4.40;85.81;100310.38;10460162;28;20110;-75
2022/01/06 00:52:05;;;;;;;10.00;5.55;;;;;;;4.48;86.58;100316.66;10458520;28;20408;-75
2022/01/06 00:57:06;;;;;;;12.75;4.90;;;;;;;4.19;85.48;100291.97;10417701;28;20049;-75
2022/01/06 01:02:07;;;;;;;8.45;5.05;;;;;;;3.97;87.05;100261.41;10417712;28;20128;-75
2022/01/06 01:07:08;;;;;;;11.20;5.57;;;;;;;4.07;87.82;100285.97;10417491;28;20132;-75
2022/01/06 01:12:09;;;;;;;12.52;5.63;;;;;;;4.16;87.21;100289.59;10416520;28;20048;-75
2022/01/06 01:17:14;;;;;;;10.48;6.60;;;;;;;3.88;87.45;100258.56;10416983;28;20060;-75
2022/01/06 01:22:15;;;;;;;14.15;6.07;;;;;;;3.52;87.24;100194.13;10416982;28;20040;-75
2022/01/06 01:27:20;;;;;;;12.25;6.72;;;;;;;3.09;87.11;100139.91;10416197;28;20180;-75
2022/01/06 01:32:28;;;;;;;12.07;7.00;;;;;;;3.85;87.26;100265.88;10415999;28;20045;-75
2022/01/06 01:37:31;;;;;;;13.65;5.88;;;;;;;2.94;86.80;100138.53;10416310;28;20057;-75
2022/01/06 01:42:32;;;;;;;11.55;6.43;;;;;;;3.03;86.63;100189.44;10415639;28;20391;-75
2022/01/06 01:47:43;;;;;;;10.93;6.40;;;;;;;3.53;87.51;100306.13;10415836;28;20038;-75
2022/01/06 01:52:47;;;;;;;9.20;5.82;;;;;;;3.33;87.19;100312.16;10415956;28;20068;-75
2022/01/06 01:57:49;;;;;;;9.40;5.93;;;;;;;3.05;87.95;100298.59;10415561;28;20049;-75
2022/01/06 02:02:50;;;;;;;12.02;6.30;;;;;;;2.98;88.19;100324.44;10414923;28;20041;-75
2022/01/06 02:07:52;;;;;;;11.70;6.53;;;;;;;2.39;89.00;100253.84;10415706;28;20033;-75
2022/01/06 02:12:55;;;;;;;11.13;6.30;;;;;;;2.22;89.06;100221.06;10415678;28;20041;-75
2022/01/06 02:17:56;;;;;;;11.03;6.13;;;;;;;2.48;88.92;100304.75;10414803;28;20044;-75
2022/01/06 02:22:57;;;;;;;16.45;7.90;;;;;;;1.67;90.13;100188.56;10414014;28;20124;-77
2022/01/06 02:28:03;;;;;;;17.90;8.65;;;;;;;2.21;89.69;100282.28;10414879;28;20096;-75
2022/01/06 02:33:06;;;;;;;14.13;7.93;;;;;;;2.38;90.18;100309.03;10414459;28;20037;-77
2022/01/06 02:38:09;;;;;;;21.05;7.38;;;;;;;1.80;89.98;100212.06;10414217;28;20052;-74
2022/01/06 02:43:10;;;;;;;9.25;6.15;;;;;;;2.27;89.79;100296.72;10413713;28;20045;-75
2022/01/06 02:48:12;;;;;;;12.00;6.85;;;;;;;2.07;89.46;100303.47;10413671;28;20068;-75
2022/01/06 02:53:15;;;;;;;11.23;6.00;;;;;;;1.93;90.10;100307.09;10412832;28;20049;-75
2022/01/06 02:58:17;;;;;;;15.25;7.78;;;;;;;1.60;90.28;100258.06;10412934;28;20484;-75
2022/01/06 03:03:18;;;;;;;12.52;7.05;;;;;;;1.71;90.51;100297.38;10413704;28;20048;-75
2022/01/06 03:08:22;;;;;;;14.63;6.43;;;;;;;0.84;90.36;100178.94;10413213;28;20394;-75
2022/01/06 03:13:23;;;;;;;14.75;6.15;;;;;;;1.06;90.46;100259.31;10413259;28;20045;-76
2022/01/06 03:18:24;;;;;;;11.60;5.72;;;;;;;1.20;91.25;100278.41;10412457;28;20041;-75
2022/01/06 03:23:25;;;;;;;9.70;4.93;;;;;;;0.47;90.70;100179.84;10413722;28;20509;-76
2022/01/06 03:28:26;;;;;;;9.95;5.15;;;;;;;0.80;91.23;100258.53;10412064;28;20087;-76
2022/01/06 03:33:27;;;;;;;13.07;5.50;;;;;;;0.86;91.29;100268.56;10413250;28;20452;-78
2022/01/06 03:38:28;;;;;;;9.02;5.50;;;;;;;0.74;91.31;100265.97;10410933;28;20079;-76
2022/01/06 03:43:29;;;;;;;7.90;4.70;;;;;;;0.53;91.08;100236.94;10412590;28;20054;-75
2022/01/06 03:48:29;;;;;;;9.60;5.03;;;;;;;0.28;90.51;100201.22;10412387;28;20053;-76
2022/01/06 03:53:30;;;;;;;15.95;5.15;;;;;;;0.70;90.63;100304.56;10411635;28;20045;-75
2022/01/06 03:58:31;;;;;;;16.05;5.32;;;;;;;0.38;91.25;100237.03;10411804;28;20080;-76
2022/01/06 04:03:32;;;;;;;9.77;5.03;;;;;;;0.84;91.60;100314.94;10412162;28;20065;-76
2022/01/06 04:08:33;;;;;;;12.93;4.63;;;;;;;0.73;90.76;100306.97;10420508;28;20037;-75
2022/01/06 04:13:34;;;;;;;11.02;4.63;;;;;;;0.32;91.10;100275.81;10444183;28;20030;-76
2022/01/06 04:18:36;;;;;;;13.43;4.30;;;;;;;0.57;90.65;100314.19;10420161;28;20516;-75
2022/01/06 04:23:37;;;;;;;11.07;5.55;;;;;;;-0.12;92.18;100183.88;10422118;28;20044;-75
2022/01/06 04:28:38;;;;;;;14.35;6.03;;;;;;;0.23;91.20;100246.75;10426247;28;20516;-75
2022/01/06 04:33:39;;;;;;;8.77;5.68;;;;;;;0.51;91.03;100296.31;10419363;28;20525;-76
2022/01/06 04:38:40;;;;;;;11.65;6.95;;;;;;;-0.12;91.78;100201.28;10418755;28;20048;-75
2022/01/06 04:43:41;;;;;;;19.33;6.85;;;;;;;0.68;91.50;100309.06;10419015;28;20107;-76
2022/01/06 04:48:41;;;;;;;13.70;6.88;;;;;;;0.61;91.51;100303.44;10416496;28;20053;-75
2022/01/06 04:53:42;;;;;;;11.35;6.63;;;;;;;0.61;91.64;100305.22;10420517;28;20140;-75
2022/01/06 04:58:43;;;;;;;12.00;6.55;;;;;;;0.15;91.89;100195.97;10435789;28;20076;-74
2022/01/06 05:03:44;;;;;;;17.67;7.38;;;;;;;0.37;92.32;100204.03;10417052;28;20484;-75
2022/01/06 05:08:45;;;;;;;17.92;8.30;;;;;;;0.01;93.35;100115.16;10428446;28;20047;-74
2022/01/06 05:13:46;;;;;;;18.30;8.15;;;;;;;1.50;93.01;100315.50;10453395;28;20041;-75
2022/01/06 05:18:47;;;;;;;14.23;7.47;;;;;;;1.68;92.14;100322.97;10457533;28;20041;-76
2022/01/06 05:23:49;;;;;;;15.32;7.95;;;;;;;1.69;92.38;100291.41;10458152;28;20041;-74
2022/01/06 05:28:50;;;;;;;12.65;8.25;;;;;;;2.04;92.10;100291.44;10456970;28;20045;-77
2022/01/06 05:33:51;;;;;;;32.33;8.90;;;;;;;2.60;92.13;100323.94;10458579;28;20041;-74
2022/01/06 05:38:52;;;;;;;15.70;9.20;;;;;;;2.86;91.62;100329.81;10458075;28;20048;-74
2022/01/06 05:43:53;;;;;;;25.92;9.45;;;;;;;3.24;91.34;100336.50;10452042;28;20044;-76
2022/01/06 05:48:54;;;;;;;20.73;8.80;;;;;;;2.66;90.55;100189.72;10440397;28;20535;-75
2022/01/06 05:53:55;;;;;;;13.80;7.95;;;;;;;3.81;89.88;100332.78;10423754;28;20111;-74
2022/01/06 05:58:55;;;;;;;15.57;8.57;;;;;;;3.85;89.77;100295.63;10433866;28;20436;-74
2022/01/06 06:03:56;;;;;;;15.48;8.65;;;;;;;4.31;88.00;100330.44;10419292;28;20090;-76
2022/01/06 06:08:58;;;;;;;16.13;7.93;;;;;;;4.69;87.77;100335.06;10419795;28;20048;-73
2022/01/06 06:13:59;;;;;;;20.65;8.68;;;;;;;4.94;86.12;100349.63;10452796;28;20067;-75
2022/01/06 06:19:00;;;;;;;15.52;7.40;;;;;;;5.13;85.26;100326.97;10456828;28;20374;-74
2022/01/06 06:24:00;;;;;;;13.77;7.43;;;;;;;5.31;84.38;100320.09;10455226;28;20127;-74
2022/01/06 06:29:01;;;;;;;13.23;7.20;;;;;;;5.59;83.34;100321.09;10455541;28;20496;-75
2022/01/06 06:34:02;;;;;;;15.30;8.07;;;;;;;4.36;82.70;100083.66;10454442;28;20075;-75
2022/01/06 06:39:04;;;;;;;13.00;7.03;;;;;;;6.01;81.98;100312.16;10455139;28;20095;-74
2022/01/06 06:44:05;;;;;;;13.02;6.20;;;;;;;6.37;81.08;100314.09;10453172;28;20095;-74
2022/01/06 06:49:06;;;;;;;9.90;5.85;;;;;;;5.85;79.73;100194.88;10454443;28;20087;-74
2022/01/06 06:54:07;;;;;;;9.68;5.20;;;;;;;6.62;78.17;100269.56;10455835;28;20048;-72
2022/01/06 06:59:07;;;;;;;7.97;4.70;;;;;;;7.22;77.35;100320.19;10455176;28;20139;-72
2022/01/06 07:04:08;;;;;;;7.97;4.28;;;;;;;7.41;75.67;100316.59;10454614;28;20044;-72
2022/01/06 07:09:09;;;;;;;6.40;3.83;;;;;;;7.03;74.63;100223.38;10454368;28;20447;-73
2022/01/06 07:14:10;;;;;;;7.43;4.03;;;;;;;7.23;73.48;100218.78;10454836;28;20116;-73
2022/01/06 07:19:11;;;;;;;6.72;4.28;;;;;;;7.90;73.28;100289.84;10437039;28;20564;-74
2022/01/06 07:24:11;;;;;;;7.53;4.18;;;;;;;8.16;72.68;100308.38;10413210;28;20049;-75
2022/01/06 07:29:12;;;;;;;7.13;3.40;;;;;;;8.08;71.26;100272.13;10412595;28;20442;-74
2022/01/06 07:34:13;;;;;;;6.15;3.72;;;;;;;8.56;70.79;100289.34;10412268;28;20038;-74
2022/01/06 07:39:14;;;;;;;6.65;3.10;;;;;;;8.39;69.37;100210.81;10414064;28;20045;-74
2022/01/06 07:44:15;;;;;;;5.28;2.72;;;;;;;9.06;68.21;100271.88;10420631;28;20053;-74
2022/01/06 07:49:17;;;;;;;5.38;2.65;;;;;;;9.09;67.12;100222.06;10420596;28;20064;-74
2022/01/06 07:54:18;;;;;;;7.10;4.32;;;;;;;9.74;67.54;100284.16;10420699;28;20041;-75
2022/01/06 07:59:18;;;;;;;12.75;6.65;;;;;;;9.60;67.95;100294.41;10420563;28;20085;-73
2022/01/06 08:04:19;;;;;;;10.07;5.90;;;;;;;9.50;68.50;100284.94;10420911;28;20045;-74
2022/01/06 08:09:20;;;;;;;11.38;6.68;;;;;;;9.00;68.48;100216.88;10419728;28;20464;-73
2022/01/06 08:14:21;;;;;;;15.63;6.82;;;;;;;9.10;68.53;100212.28;10419544;28;20483;-73
2022/01/06 08:19:22;;;;;;;10.35;4.90;;;;;;;9.27;67.85;100224.59;10419416;28;20046;-74
2022/01/06 08:24:23;;;;;;;13.52;6.18;;;;;;;8.95;68.11;100135.25;10419804;28;20069;-73
2022/01/06 08:29:23;;;;;;;13.30;5.65;;;;;;;9.39;67.50;100177.34;10434490;28;20073;-73
2022/01/06 08:34:24;;;;;;;9.65;5.20;;;;;;;10.23;66.68;100278.84;10418423;28;20444;-74
2022/01/06 08:39:25;;;;;;;11.15;5.20;;;;;;;10.08;66.59;100238.91;10418590;28;20132;-74
2022/01/06 08:44:27;;;;;;;12.38;5.00;;;;;;;10.21;66.22;100217.13;10418416;28;20567;-74
2022/01/06 08:49:28;;;;;;;8.90;4.47;;;;;;;10.55;64.94;100269.22;10417847;28;20049;-73
2022/01/06 08:54:29;;;;;;;10.07;4.65;;;;;;;10.31;65.90;100211.66;10416389;28;20060;-73
2022/01/06 08:59:30;;;;;;;8.10;4.30;;;;;;;10.32;65.05;100176.13;10417464;28;20034;-74
2022/01/06 09:04:31;;;;;;;8.43;4.25;;;;;;;10.63;65.07;100222.19;10433395;28;20046;-74
2022/01/06 09:09:32;;;;;;;7.30;3.92;;;;;;;10.42;64.66;100150.25;10417662;28;20052;-73
2022/01/06 09:14:33;;;;;;;7.50;3.65;;;;;;;10.99;63.00;100221.72;10417397;28;20037;-73
2022/01/06 09:19:34;;;;;;;8.05;3.95;;;;;;;11.03;63.16;100175.19;10416598;28;20033;-74
2022/01/06 09:24:35;;;;;;;9.15;3.65;;;;;;;11.25;62.11;100162.06;10459304;28;20052;-74
2022/01/06 09:29:36;;;;;;;5.40;2.90;;;;;;;11.80;61.50;100208.91;10458318;28;20037;-73
2022/01/06 09:34:37;;;;;;;8.77;3.70;;;;;;;11.36;61.02;100084.53;10457931;28;20066;-74
2022/01/06 09:39:38;;;;;;;5.60;3.00;;;;;;;12.27;59.75;100210.50;10458112;28;20128;-73
2022/01/06 09:44:39;;;;;;;9.35;3.50;;;;;;;11.53;59.43;100074.59;10457461;28;20095;-73
2022/01/06 09:49:44;;;;;;;9.23;3.15;;;;;;;12.51;59.72;100185.41;10456754;28;20550;-73
2022/01/06 09:54:45;;;;;;;5.80;3.03;;;;;;;12.19;57.42;100101.38;10457454;28;20053;-72
2022/01/06 09:59:46;;;;;;;6.47;2.22;;;;;;;12.83;58.57;100172.69;10456326;28;20487;-73
2022/01/06 10:04:59;;;;;;;4.55;1.98;;;;;;;12.66;55.70;100138.25;10456261;28;20128;-74
2022/01/06 10:10:08;;;;;;;6.38;1.75;;;;;;;13.21;55.12;100171.47;10456965;28;20044;-73
2022/01/06 10:15:36;;;;;;;5.10;1.60;;;;;;;13.20;56.23;100164.50;10456440;28;20049;-73
2022/01/06 10:20:37;;;;;;;5.25;1.40;;;;;;;11.98;56.27;100022.25;10453563;28;20060;-73
2022/01/06 10:25:41;;;;;;;2.35;0.90;;;;;;;11.92;56.95;100057.59;10453113;28;20040;-75
2022/01/06 10:30:48;;;;;;;1.80;0.90;;;;;;;12.68;57.74;100157.53;10446598;28;20051;-72
2022/01/06 10:35:49;;;;;;;7.03;1.27;;;;;;;12.71;56.99;100167.84;10440381;28;20056;-73
2022/01/06 10:40:50;;;;;;;3.72;1.40;;;;;;;12.38;57.39;100161.25;10442531;28;20172;-74
2022/01/06 10:46:00;;;;;;;5.82;1.70;;;;;;;12.34;58.11;100121.66;10450205;28;20136;-72
2022/01/06 10:51:02;;;;;;;6.78;1.20;;;;;;;12.32;56.63;100054.44;10438384;28;20061;-74
2022/01/06 10:56:03;;;;;;;3.22;1.30;;;;;;;13.00;56.57;100126.94;10427633;28;20041;-71
2022/01/06 11:01:04;;;;;;;3.22;1.38;;;;;;;13.19;55.70;100138.84;10418603;28;20041;-71
2022/01/06 11:06:06;;;;;;;3.00;1.38;;;;;;;13.35;55.91;100166.31;10453747;28;20049;-72
2022/01/06 11:16:13;;;;;;;2.45;1.42;;;;;;;12.55;57.68;100122.75;10450175;28;20048;-73
2022/01/06 11:21:18;;;;;;;3.78;1.80;;;;;;;12.53;59.12;100140.75;10444928;28;20390;-74
2022/01/06 11:26:22;;;;;;;7.70;1.90;;;;;;;12.26;60.63;100111.09;10437905;28;20049;-73
2022/01/06 11:31:26;;;;;;;8.32;2.20;;;;;;;11.73;60.69;100014.53;10450229;28;20041;-73
2022/01/06 11:36:35;;;;;;;3.90;1.70;;;;;;;12.70;59.97;100158.19;10451708;28;20033;-75
2022/01/06 11:41:40;;;;;;;5.45;1.92;;;;;;;12.72;59.89;100166.84;10446682;28;20037;-74
2022/01/06 11:46:43;;;;;;;5.05;1.88;;;;;;;12.55;60.01;100102.25;10449339;28;20037;-74
2022/01/06 11:51:44;;;;;;;4.50;2.28;;;;;;;12.70;60.33;100085.41;10441902;28;20059;-74
2022/01/06 11:56:50;;;;;;;8.13;2.38;;;;;;;13.33;60.64;100157.69;10451814;28;20401;-73
2022/01/06 12:01:51;;;;;;;4.00;2.10;;;;;;;13.42;59.13;100159.19;10439115;28;20405;-73
2022/01/06 12:07:08;;;;;;;5.50;2.40;;;;;;;13.45;57.53;100162.31;10443031;28;20037;-72
2022/01/06 12:12:10;;;;;;;7.47;2.38;;;;;;;12.93;58.09;100135.91;10450065;28;20041;-72
2022/01/06 12:17:11;;;;;;;3.17;2.15;;;;;;;12.18;58.72;100070.44;10450250;28;20527;-75
2022/01/06 12:22:12;;;;;;;12.13;2.80;;;;;;;11.43;60.15;100008.38;10451915;28;20400;-74
2022/01/06 12:27:15;;;;;;;10.45;2.70;;;;;;;12.19;61.07;100178.63;10452203;28;20049;-73
2022/01/06 12:32:19;;;;;;;6.57;3.17;;;;;;;12.18;61.81;100190.28;10443121;28;20132;-72
2022/01/06 12:37:30;;;;;;;6.83;3.20;;;;;;;12.28;61.74;100175.66;10439555;28;20408;-73
2022/01/06 12:42:30;;;;;;;9.68;3.17;;;;;;;12.39;61.64;100177.06;10458680;28;20360;-74
2022/01/06 12:47:31;;;;;;;15.00;3.40;;;;;;;12.37;62.52;100172.94;10451317;28;20508;-73
2022/01/06 12:52:33;;;;;;;10.48;3.78;;;;;;;12.21;63.16;100168.63;10418862;28;20068;-75
2022/01/06 12:57:34;;;;;;;13.05;3.78;;;;;;;12.18;64.26;100182.28;10431971;28;20076;-74
2022/01/06 13:02:35;;;;;;;6.60;3.78;;;;;;;11.56;64.70;100119.47;10445133;28;20048;-75
2022/01/06 13:07:35;;;;;;;11.27;3.88;;;;;;;11.85;64.93;100185.28;10428970;28;20049;-71
2022/01/06 13:12:37;;;;;;;15.25;6.05;;;;;;;11.48;65.17;100148.78;10435325;28;20440;-74
2022/01/06 13:17:43;;;;;;;22.65;5.88;;;;;;;11.46;66.13;100190.69;10455583;28;20056;-75
2022/01/06 13:28:07;;;;;;;21.75;6.22;;;;;;;11.02;68.64;100193.97;10457568;28;20088;-74
2022/01/06 13:33:10;;;;;;;11.30;5.60;;;;;;;10.55;69.16;100182.38;10457081;28;20163;-75
2022/01/06 13:38:22;;;;;;;16.17;5.35;;;;;;;10.34;69.94;100192.75;10455985;28;20496;-76
2022/01/06 13:43:25;;;;;;;21.40;6.10;;;;;;;9.78;70.78;100145.72;10457439;28;20041;-78
2022/01/06 13:53:42;;;;;;;20.33;6.95;;;;;;;9.50;72.89;100210.69;10415782;28;20034;-74
2022/01/06 13:58:46;;;;;;;34.38;8.32;;;;;;;9.05;73.00;100191.56;10410987;28;20041;-74
2022/01/06 14:03:48;;;;;;;18.10;8.13;;;;;;;8.64;73.91;100178.16;10417473;28;20144;-76
2022/01/06 14:08:49;;;;;;;21.60;8.40;;;;;;;8.01;74.59;100131.69;10422165;28;20052;-75
2022/01/06 14:13:49;;;;;;;32.80;8.57;;;;;;;8.46;75.54;100248.91;10447543;28;20048;-75
2022/01/06 14:18:50;;;;;;;26.17;7.82;;;;;;;6.67;76.22;99976.13;10437909;28;20033;-75
2022/01/06 14:23:51;;;;;;;20.88;6.80;;;;;;;7.50;76.65;100156.28;10420758;28;20429;-76
2022/01/06 14:28:52;;;;;;;18.42;6.63;;;;;;;7.68;77.31;100217.88;10426508;28;20037;-77
2022/01/06 14:33:54;;;;;;;24.92;6.50;;;;;;;7.00;77.77;100133.03;10429909;28;20041;-78
2022/01/06 14:38:54;;;;;;;21.23;4.97;;;;;;;7.11;78.93;100195.38;10449273;28;20051;-78
2022/01/06 14:43:55;;;;;;;11.95;5.70;;;;;;;6.93;79.87;100187.44;10448860;28;20047;-76
2022/01/06 14:48:56;;;;;;;19.02;5.10;;;;;;;6.84;80.25;100179.41;10431397;28;20060;-75
2022/01/06 14:53:58;;;;;;;10.27;4.47;;;;;;;7.07;80.65;100226.56;10455560;28;20037;-75
2022/01/06 14:58:58;;;;;;;20.50;7.25;;;;;;;6.72;81.43;100214.91;10438641;28;20091;-75
2022/01/06 15:04:00;;;;;;;19.77;5.88;;;;;;;6.36;81.12;100169.09;10416250;28;20123;-75
2022/01/06 15:09:02;;;;;;;20.65;7.13;;;;;;;6.54;81.42;100237.78;10449612;28;20049;-76
2022/01/06 15:14:02;;;;;;;17.55;6.18;;;;;;;6.05;82.12;100176.44;10449893;28;20040;-75
2022/01/06 15:19:03;;;;;;;20.90;6.22;;;;;;;5.68;81.93;100127.91;10438982;28;20049;-74
2022/01/06 15:24:06;;;;;;;18.48;6.80;;;;;;;6.07;82.83;100219.28;10413105;28;20099;-76
2022/01/06 15:29:07;;;;;;;15.57;5.70;;;;;;;5.86;82.85;100204.47;10419508;28;20048;-74
2022/01/06 15:34:08;;;;;;;12.43;5.10;;;;;;;4.41;83.58;99975.44;10422980;28;20041;-77
2022/01/06 15:39:09;;;;;;;13.32;5.53;;;;;;;5.17;84.46;100083.47;10430463;28;20045;-76
2022/01/06 15:44:10;;;;;;;10.30;5.15;;;;;;;5.98;83.78;100234.16;10436158;28;20044;-76
2022/01/06 15:49:11;;;;;;;14.98;5.57;;;;;;;4.55;83.44;100046.06;10440662;28;20056;-78
2022/01/06 15:54:17;;;;;;;14.43;5.70;;;;;;;4.27;84.41;100019.53;10443577;28;20039;-77
2022/01/06 15:59:24;;;;;;;15.02;6.03;;;;;;;5.64;85.47;100250.38;10437420;28;20032;-81
2022/01/06 16:09:50;;;;;;;34.90;16.02;;;;;;;4.91;84.13;100114.78;10443933;28;20412;-79
2022/01/06 16:14:51;;;;;;;47.70;21.27;;;;;;;5.50;84.00;100237.59;10432374;28;20042;-80
2022/01/06 16:19:52;;;;;;;40.45;21.80;;;;;;;5.37;84.38;100224.72;10433393;28;20045;-81
2022/01/06 16:24:53;;;;;;;16.73;11.68;;;;;;;4.96;84.18;100162.56;10452244;28;20504;-79
2022/01/06 16:30:29;;;;;;;19.05;9.80;;;;;;;4.89;84.85;100167.56;10453292;28;20492;-80
2022/01/06 16:35:30;;;;;;;16.85;9.15;;;;;;;4.67;85.13;100160.72;10413546;28;20049;-84
2022/01/06 16:40:31;;;;;;;12.45;6.75;;;;;;;4.78;85.47;100176.38;10456059;28;20521;-78
2022/01/06 16:45:34;;;;;;;10.68;6.63;;;;;;;2.74;85.94;99873.41;10460118;28;20043;-77
2022/01/06 16:50:35;;;;;;;14.30;6.57;;;;;;;4.08;85.16;100112.34;10460723;28;20064;-75
2022/01/06 16:55:39;;;;;;;12.48;6.25;;;;;;;4.70;84.81;100213.09;10444090;28;20076;-75
2022/01/06 17:00:40;;;;;;;18.75;6.00;;;;;;;4.33;84.93;100182.03;10434095;28;20079;-76
2022/01/06 17:05:44;;;;;;;9.70;5.55;;;;;;;2.86;85.69;99944.16;10455446;28;20145;-74
2022/01/06 17:10:45;;;;;;;13.95;5.60;;;;;;;3.24;84.78;100034.63;10450695;28;20051;-76
2022/01/06 17:15:46;;;;;;;11.10;5.80;;;;;;;4.29;86.08;100211.38;10451907;28;20051;-74
2022/01/06 17:20:47;;;;;;;11.95;5.38;;;;;;;3.84;86.18;100167.00;10451196;28;20037;-76
2022/01/06 17:25:48;;;;;;;14.80;5.90;;;;;;;4.07;86.92;100213.19;10451532;28;20037;-75
2022/01/06 17:30:49;;;;;;;14.32;5.47;;;;;;;4.01;86.81;100189.22;10437987;28;20053;-74
2022/01/06 17:35:51;;;;;;;11.35;5.13;;;;;;;4.05;87.38;100225.63;10419525;28;20124;-74
2022/01/06 17:40:52;;;;;;;9.55;4.72;;;;;;;3.73;86.34;100177.56;10434840;28;20171;-74
2022/01/06 17:45:53;;;;;;;9.52;4.65;;;;;;;3.22;86.95;100102.97;10449792;28;20041;-77
2022/01/06 17:50:54;;;;;;;9.32;4.38;;;;;;;2.76;87.33;99993.13;10425090;28;20053;-77
2022/01/06 17:55:56;;;;;;;7.25;3.88;;;;;;;4.29;87.36;100211.38;10427142;28;20485;-77
2022/01/06 18:00:57;;;;;;;7.53;3.53;;;;;;;4.39;86.73;100198.25;10425519;28;20041;-77
2022/01/06 18:06:03;;;;;;;9.40;3.80;;;;;;;4.50;86.51;100201.63;10431342;28;20029;-77
2022/01/06 18:11:19;;;;;;;7.18;3.20;;;;;;;4.54;84.81;100208.28;10439752;28;20139;-77
2022/01/06 18:16:21;;;;;;;6.53;2.65;;;;;;;2.66;83.97;99903.84;10452429;28;20467;-76
2022/01/06 18:21:22;;;;;;;5.45;3.00;;;;;;;4.15;84.59;100188.88;10451111;28;20072;-78
2022/01/06 18:26:23;;;;;;;5.63;2.55;;;;;;;2.71;86.11;99926.13;10453587;28;20064;-77
2022/01/06 18:31:24;;;;;;;5.68;2.05;;;;;;;4.61;85.83;100149.88;10451519;28;20060;-76
2022/01/06 18:36:25;;;;;;;5.68;2.15;;;;;;;4.67;84.39;100128.31;10454112;28;20450;-77
2022/01/06 18:41:27;;;;;;;6.07;2.50;;;;;;;4.06;84.20;100014.38;10451734;28;20076;-78
2022/01/06 18:46:28;;;;;;;6.63;3.20;;;;;;;3.71;83.66;99958.81;10450340;28;20044;-77
2022/01/06 18:51:29;;;;;;;11.50;3.50;;;;;;;4.90;83.14;100173.63;10452933;28;20148;-77
2022/01/06 18:56:30;;;;;;;13.90;4.60;;;;;;;3.93;82.68;100052.38;10452235;28;20047;-79
2022/01/06 19:01:31;;;;;;;7.78;4.50;;;;;;;4.78;82.58;100228.19;10452165;28;20037;-77
2022/01/06 19:06:32;;;;;;;14.00;7.15;;;;;;;3.55;83.89;100043.34;10452082;28;20408;-77
2022/01/06 19:11:33;;;;;;;13.50;8.00;;;;;;;4.20;83.44;100199.84;10451657;28;20047;-78
2022/01/06 19:16:34;;;;;;;14.50;6.45;;;;;;;4.17;83.73;100218.50;10450672;28;20041;-78
2022/01/06 19:21:35;;;;;;;6.25;4.10;;;;;;;3.68;83.79;100191.09;10448909;28;20432;-78
2022/01/06 19:26:36;;;;;;;6.00;3.00;;;;;;;3.53;84.35;100224.72;10452828;28;20036;-78
2022/01/06 19:31:37;;;;;;;6.88;3.33;;;;;;;3.01;85.66;100181.66;10452626;28;20045;-78
2022/01/06 19:36:38;;;;;;;19.40;15.82;;;;;;;3.23;86.03;100212.28;10456715;28;20033;-78
2022/01/06 19:41:39;;;;;;;22.55;15.27;;;;;;;3.19;86.24;100231.84;10460347;28;20489;-77
2022/01/06 19:46:39;;;;;;;15.93;10.23;;;;;;;2.74;85.78;100185.53;10459937;28;20098;-78
2022/01/06 19:51:40;;;;;;;25.73;12.45;;;;;;;2.32;85.45;100133.88;10458300;28;20053;-77
2022/01/06 19:56:41;;;;;;;15.30;8.25;;;;;;;2.12;85.77;100153.75;10459599;28;20559;-77
2022/01/06 20:01:42;;;;;;;11.85;6.07;;;;;;;2.54;85.95;100267.56;10458442;28;20045;-78
2022/01/06 20:06:43;;;;;;;14.07;7.57;;;;;;;2.33;86.66;100238.59;10459695;28;20133;-78
2022/01/06 20:11:44;;;;;;;24.95;9.20;;;;;;;2.59;87.00;100270.66;10458994;28;20517;-78
2022/01/06 20:16:44;;;;;;;14.25;8.77;;;;;;;2.22;87.48;100200.09;10454575;28;20505;-78
2022/01/06 20:21:45;;;;;;;17.02;10.35;;;;;;;2.48;87.03;100247.91;10440970;28;20048;-78
2022/01/06 20:26:46;;;;;;;20.40;11.80;;;;;;;1.26;86.49;100071.28;10437059;28;20042;-78
2022/01/06 20:31:47;;;;;;;22.58;12.40;;;;;;;1.02;87.03;100034.69;10450241;28;20072;-77
2022/01/06 20:36:48;;;;;;;23.58;11.68;;;;;;;2.50;87.23;100256.47;10452587;28;20080;-78
2022/01/06 20:41:48;;;;;;;18.65;10.32;;;;;;;2.26;85.96;100253.13;10450560;28;20037;-77
2022/01/06 20:46:56;;;;;;;17.00;9.77;;;;;;;1.71;86.97;100171.69;10419179;28;20049;-77
2022/01/06 20:51:57;;;;;;;19.88;10.35;;;;;;;2.17;87.96;100280.88;10417786;28;20064;-77
2022/01/06 20:56:58;;;;;;;26.38;10.68;;;;;;;1.06;87.40;100073.56;10419072;28;20049;-77
2022/01/06 21:02:00;;;;;;;17.77;10.05;;;;;;;2.20;87.99;100264.91;10419848;28;20045;-77
2022/01/06 21:07:02;;;;;;;16.05;10.02;;;;;;;1.32;87.82;100121.38;10424128;28;20056;-77
2022/01/06 21:12:06;;;;;;;24.90;8.43;;;;;;;0.17;87.31;99948.56;10457673;28;20048;-77
2022/01/06 21:17:07;;;;;;;15.77;7.55;;;;;;;1.81;86.68;100232.91;10458868;28;20045;-77
2022/01/06 21:22:08;;;;;;;12.27;6.22;;;;;;;1.41;86.89;100171.34;10458654;28;20041;-78
2022/01/06 21:27:09;;;;;;;9.52;5.20;;;;;;;1.72;87.30;100233.56;10458173;28;20068;-77
2022/01/06 21:32:11;;;;;;;10.27;5.05;;;;;;;1.70;87.91;100232.84;10456302;28;20130;-76
2022/01/06 21:37:12;;;;;;;10.23;4.80;;;;;;;1.70;87.78;100240.69;10457837;28;20056;-77
2022/01/06 21:42:13;;;;;;;9.25;4.68;;;;;;;1.39;88.52;100209.91;10458223;28;20048;-77
2022/01/06 21:47:14;;;;;;;16.63;7.00;;;;;;;1.74;88.99;100270.97;10458493;28;20092;-76
2022/01/06 21:52:15;;;;;;;12.60;5.70;;;;;;;1.66;89.03;100256.78;10439246;28;20057;-77
2022/01/06 21:57:16;;;;;;;10.70;6.13;;;;;;;1.43;89.04;100211.31;10424494;28;20061;-77
2022/01/06 22:02:16;;;;;;;15.45;6.55;;;;;;;1.18;88.55;100191.34;10442618;28;20144;-77
2022/01/06 22:07:19;;;;;;;13.02;7.22;;;;;;;1.23;88.48;100218.88;10456884;28;20032;-77
2022/01/06 22:12:21;;;;;;;17.23;8.13;;;;;;;1.45;88.31;100253.94;10427895;28;20049;-77
2022/01/06 22:17:25;;;;;;;14.98;8.13;;;;;;;1.17;88.81;100211.47;10415801;28;20041;-78
2022/01/06 22:22:27;;;;;;;20.55;9.25;;;;;;;1.42;88.03;100283.78;10414563;28;20125;-77
2022/01/06 22:27:27;;;;;;;14.45;8.48;;;;;;;1.32;88.47;100272.31;10415316;28;20043;-77
2022/01/06 22:32:29;;;;;;;15.70;8.38;;;;;;;1.15;88.23;100260.44;10415208;28;20059;-77
2022/01/06 22:37:30;;;;;;;19.45;8.90;;;;;;;1.18;88.75;100289.00;10414809;28;20037;-77
2022/01/06 22:42:31;;;;;;;20.58;11.15;;;;;;;0.79;87.36;100235.94;10414212;28;20033;-77
2022/01/06 22:47:32;;;;;;;15.68;10.18;;;;;;;0.48;88.46;100205.03;10414396;28;20044;-77
2022/01/06 22:52:33;;;;;;;17.90;11.00;;;;;;;0.74;88.75;100263.34;10413760;28;20096;-77
2022/01/06 22:57:34;;;;;;;15.30;8.40;;;;;;;0.52;89.14;100214.34;10412605;28;20045;-77
2022/01/06 23:02:35;;;;;;;15.27;9.77;;;;;;;0.87;89.03;100270.25;10413195;28;20508;-77
2022/01/06 23:07:38;;;;;;;15.57;8.73;;;;;;;0.77;89.18;100248.28;10413570;28;20041;-77
2022/01/06 23:12:39;;;;;;;17.25;9.38;;;;;;;0.45;88.17;100225.25;10412020;28;20072;-76
2022/01/06 23:17:40;;;;;;;15.85;8.38;;;;;;;0.62;89.06;100280.72;10412735;28;20041;-77
2022/01/06 23:22:41;;;;;;;14.05;9.00;;;;;;;-0.27;89.33;100112.66;10413375;28;20045;-77
2022/01/06 23:27:42;;;;;;;15.18;7.85;;;;;;;-0.12;88.53;100149.06;10412916;28;20397;-77
2022/01/06 23:32:44;;;;;;;14.50;8.05;;;;;;;0.59;88.89;100283.56;10413668;28;20045;-77
2022/01/06 23:37:46;;;;;;;15.73;8.57;;;;;;;0.20;88.74;100225.25;10412516;28;20077;-76